createdAt,value
2023-04-09T00:00:45.498Z,54.06
2023-04-09T00:03:12.660Z,54.23
2023-04-09T00:05:40.659Z,52.58
2023-04-09T00:08:07.825Z,52.29
2023-04-09T00:10:34.829Z,54.32
2023-04-09T00:13:01.902Z,53.24
2023-04-09T00:15:31.580Z,53.21
2023-04-09T00:17:59.745Z,53.82
2023-04-09T00:20:26.858Z,53.72
2023-04-09T00:22:54.225Z,52.18
2023-04-09T00:25:21.272Z,52.91
2023-04-09T00:27:48.226Z,53.22
2023-04-09T00:30:15.956Z,53.77
2023-04-09T00:32:43.075Z,52.83
2023-04-09T00:35:12.633Z,52.35
2023-04-09T00:37:39.648Z,52.71
2023-04-09T00:40:07.170Z,53.66
2023-04-09T00:42:34.863Z,53.40
2023-04-09T00:45:02.126Z,53.40
2023-04-09T00:47:29.826Z,52.91
2023-04-09T00:49:57.004Z,52.73
2023-04-09T00:52:24.717Z,52.37
2023-04-09T00:54:51.846Z,52.00
2023-04-09T00:57:19.359Z,52.50
2023-04-09T00:59:46.418Z,52.88
2023-04-09T01:02:13.529Z,53.77
2023-04-09T01:04:41.247Z,53.60
2023-04-09T01:07:20.948Z,53.75
2023-04-09T01:09:54.835Z,52.68
2023-04-09T01:12:34.222Z,52.47
2023-04-09T01:15:30.154Z,52.18
2023-04-09T01:18:12.476Z,53.38
2023-04-09T01:20:41.557Z,52.76
2023-04-09T01:23:19.249Z,53.10
2023-04-09T01:26:04.818Z,53.50
2023-04-09T01:28:45.721Z,52.90
2023-04-09T01:31:15.393Z,52.84
2023-04-09T01:33:42.637Z,52.85
2023-04-09T01:36:09.773Z,54.18
2023-04-09T01:38:37.700Z,54.25
2023-04-09T01:41:05.395Z,53.84
2023-04-09T01:43:32.386Z,53.91
2023-04-09T01:45:59.812Z,54.09
2023-04-09T01:48:27.173Z,55.28
2023-04-09T01:50:54.151Z,55.51
2023-04-09T01:53:21.928Z,54.41
2023-04-09T01:55:48.873Z,54.44
2023-04-09T01:58:16.019Z,54.67
2023-04-09T02:00:46.973Z,54.52
2023-04-09T02:03:21.752Z,54.31
2023-04-09T02:06:06.864Z,55.27
2023-04-09T02:08:33.837Z,55.53
2023-04-09T02:11:00.924Z,53.29
2023-04-09T02:13:27.904Z,53.98
2023-04-09T02:15:56.163Z,55.66
2023-04-09T02:18:30.241Z,56.43
2023-04-09T02:20:57.572Z,55.99
2023-04-09T02:23:24.778Z,55.58
2023-04-09T02:25:52.265Z,59.07
2023-04-09T02:28:19.315Z,58.65
2023-04-09T02:30:46.331Z,57.99
2023-04-09T02:33:13.435Z,59.82
2023-04-09T02:35:40.774Z,61.27
2023-04-09T02:38:13.920Z,61.94
2023-04-09T02:40:41.447Z,63.52
2023-04-09T02:43:09.230Z,60.54
2023-04-09T02:45:36.350Z,58.74
2023-04-09T02:48:03.858Z,57.74
2023-04-09T02:50:34.645Z,55.16
2023-04-09T02:53:01.929Z,55.01
2023-04-09T02:55:28.979Z,54.13
2023-04-09T02:57:56.068Z,53.52
2023-04-09T03:00:23.130Z,53.78
2023-04-09T03:02:50.403Z,52.96
2023-04-09T03:05:17.650Z,53.39
2023-04-09T03:07:44.996Z,54.91
2023-04-09T03:10:12.125Z,53.78
2023-04-09T03:12:39.214Z,54.18
2023-04-09T03:15:07.036Z,54.51
2023-04-09T03:17:34.118Z,53.71
2023-04-09T03:20:01.164Z,54.01
2023-04-09T03:22:38.947Z,53.94
2023-04-09T03:25:19.521Z,53.02
2023-04-09T03:27:47.384Z,52.07
2023-04-09T03:30:22.036Z,51.33
2023-04-09T03:32:49.089Z,52.31
2023-04-09T03:35:16.370Z,52.88
2023-04-09T03:37:44.886Z,52.95
2023-04-09T03:40:17.178Z,52.78
2023-04-09T03:42:44.409Z,52.11
2023-04-09T03:45:14.238Z,52.14
2023-04-09T03:47:44.552Z,53.45
2023-04-09T03:50:12.435Z,53.48
2023-04-09T03:52:55.074Z,53.16
2023-04-09T03:55:22.491Z,53.33
2023-04-09T03:57:50.765Z,53.64
2023-04-09T04:00:20.820Z,53.46
2023-04-09T04:02:51.561Z,53.38
2023-04-09T04:05:29.186Z,53.19
2023-04-09T04:07:59.131Z,52.50
2023-04-09T04:10:29.276Z,52.77
2023-04-09T04:12:56.305Z,55.95
2023-04-09T04:15:33.887Z,57.49
2023-04-09T04:18:01.030Z,56.91
2023-04-09T04:20:42.171Z,57.36
2023-04-09T04:23:12.990Z,56.27
2023-04-09T04:25:58.537Z,55.73
2023-04-09T04:28:30.834Z,54.34
2023-04-09T04:30:59.275Z,52.31
2023-04-09T04:33:27.847Z,51.22
2023-04-09T04:36:13.620Z,52.36
2023-04-09T04:38:45.010Z,57.08
2023-04-09T04:41:20.915Z,58.67
2023-04-09T04:43:54.542Z,56.57
2023-04-09T04:46:24.714Z,55.25
2023-04-09T04:48:51.954Z,54.44
2023-04-09T04:51:19.528Z,55.68
2023-04-09T04:53:58.669Z,56.21
2023-04-09T04:56:25.808Z,58.13
2023-04-09T04:59:02.471Z,57.42
2023-04-09T05:01:36.266Z,56.75
2023-04-09T05:04:07.720Z,56.11
2023-04-09T05:06:36.972Z,55.90
2023-04-09T05:09:08.421Z,54.61
2023-04-09T05:11:42.137Z,53.99
2023-04-09T05:14:14.734Z,53.65
2023-04-09T05:16:42.245Z,55.04
2023-04-09T05:19:09.258Z,56.06
2023-04-09T05:21:37.712Z,56.77
2023-04-09T05:24:06.372Z,57.62
2023-04-09T05:26:34.348Z,57.51
2023-04-09T05:29:02.687Z,57.02
2023-04-09T05:31:29.786Z,58.53
2023-04-09T05:34:06.818Z,57.09
2023-04-09T05:36:47.602Z,56.27
2023-04-09T05:39:15.521Z,57.13
2023-04-09T05:41:44.636Z,55.83
2023-04-09T05:44:26.713Z,55.43
2023-04-09T05:47:00.888Z,53.90
2023-04-09T05:49:33.925Z,52.90
2023-04-09T05:52:03.521Z,52.58
2023-04-09T05:54:32.682Z,53.43
2023-04-09T05:56:59.652Z,54.53
2023-04-09T05:59:27.136Z,55.02
2023-04-09T06:01:54.264Z,55.76
2023-04-09T06:04:22.182Z,54.49
2023-04-09T06:06:49.596Z,54.45
2023-04-09T06:09:16.540Z,55.11
2023-04-09T06:11:43.524Z,56.02
2023-04-09T06:14:16.386Z,61.54
2023-04-09T06:16:43.536Z,61.23
2023-04-09T06:19:12.536Z,58.51
2023-04-09T06:21:40.828Z,57.60
2023-04-09T06:24:07.869Z,56.30
2023-04-09T06:26:34.833Z,55.35
2023-04-09T06:29:02.203Z,54.30
2023-04-09T06:31:29.727Z,53.75
2023-04-09T06:33:56.918Z,54.84
2023-04-09T06:36:23.948Z,53.17
2023-04-09T06:38:51.059Z,53.69
2023-04-09T06:41:21.301Z,54.99
2023-04-09T06:43:48.390Z,54.37
2023-04-09T06:46:17.942Z,55.61
2023-04-09T06:48:44.922Z,53.57
2023-04-09T06:51:12.337Z,53.52
2023-04-09T06:53:39.490Z,52.24
2023-04-09T06:56:06.900Z,53.10
2023-04-09T06:58:34.077Z,52.91
2023-04-09T07:01:01.186Z,53.91
2023-04-09T07:03:28.950Z,54.18
2023-04-09T07:05:56.609Z,54.53
2023-04-09T07:08:23.983Z,53.41
2023-04-09T07:10:51.210Z,57.16
2023-04-09T07:13:18.743Z,57.98
2023-04-09T07:15:45.792Z,53.34
2023-04-09T07:18:12.880Z,52.08
2023-04-09T07:20:39.821Z,51.87
2023-04-09T07:23:06.933Z,51.40
2023-04-09T07:25:34.094Z,50.44
2023-04-09T07:28:01.157Z,49.97
2023-04-09T07:30:28.165Z,48.75
2023-04-09T07:32:55.337Z,48.64
2023-04-09T07:35:22.448Z,49.92
2023-04-09T07:37:49.452Z,51.48
2023-04-09T07:40:16.638Z,56.31
2023-04-09T07:42:43.783Z,61.36
2023-04-09T07:45:11.160Z,60.97
2023-04-09T07:47:42.110Z,60.85
2023-04-09T07:50:09.661Z,57.12
2023-04-09T07:52:36.614Z,60.67
2023-04-09T07:55:03.727Z,60.58
2023-04-09T07:57:33.760Z,59.78
2023-04-09T08:00:01.846Z,60.51
2023-04-09T08:02:40.219Z,59.93
2023-04-09T08:05:08.037Z,60.08
2023-04-09T08:07:35.205Z,59.69
2023-04-09T08:10:02.175Z,60.06
2023-04-09T08:12:29.248Z,61.64
2023-04-09T08:14:56.437Z,62.02
2023-04-09T08:17:23.422Z,60.04
2023-04-09T08:19:50.801Z,59.62
2023-04-09T08:22:17.785Z,60.41
2023-04-09T08:24:44.777Z,59.85
2023-04-09T08:27:12.193Z,57.41
2023-04-09T08:29:40.632Z,56.17
2023-04-09T08:32:08.191Z,55.22
2023-04-09T08:34:35.279Z,55.60
2023-04-09T08:37:02.788Z,55.58
2023-04-09T08:39:29.804Z,53.64
2023-04-09T08:42:00.045Z,52.29
2023-04-09T08:44:27.349Z,52.91
2023-04-09T08:46:54.557Z,50.56
2023-04-09T08:49:21.761Z,50.42
2023-04-09T08:51:49.201Z,51.30
2023-04-09T08:54:17.291Z,48.71
2023-04-09T08:56:44.350Z,53.92
2023-04-09T08:59:11.441Z,53.67
2023-04-09T09:01:38.542Z,52.68
2023-04-09T09:04:07.012Z,50.65
2023-04-09T09:06:38.371Z,48.92
2023-04-09T09:09:12.710Z,49.41
2023-04-09T09:11:41.354Z,48.07
2023-04-09T09:14:09.801Z,45.10
2023-04-09T09:16:42.737Z,46.33
2023-04-09T09:19:24.850Z,49.22
2023-04-09T09:21:59.699Z,49.17
2023-04-09T09:24:26.749Z,49.20
2023-04-09T09:26:59.984Z,48.52
2023-04-09T09:29:28.206Z,47.43
2023-04-09T09:31:55.926Z,44.32
2023-04-09T09:34:23.840Z,48.78
2023-04-09T09:36:50.974Z,49.03
2023-04-09T09:39:18.222Z,45.63
2023-04-09T09:41:45.976Z,45.48
2023-04-09T09:44:13.853Z,47.03
2023-04-09T09:46:42.447Z,48.40
2023-04-09T09:49:09.649Z,50.03
2023-04-09T09:51:37.564Z,50.52
2023-04-09T09:54:04.539Z,47.10
2023-04-09T09:56:37.147Z,45.44
2023-04-09T09:59:07.631Z,43.51
2023-04-09T10:01:36.198Z,42.99
2023-04-09T10:04:04.643Z,46.74
2023-04-09T10:06:34.241Z,47.93
2023-04-09T10:09:04.594Z,49.86
2023-04-09T10:11:33.713Z,48.05
2023-04-09T10:14:00.822Z,47.95
2023-04-09T10:16:28.428Z,50.44
2023-04-09T10:18:56.413Z,50.60
2023-04-09T10:21:47.761Z,47.33
2023-04-09T10:24:16.065Z,48.89
2023-04-09T10:26:44.773Z,50.96
2023-04-09T10:29:16.630Z,49.67
2023-04-09T10:31:47.582Z,48.03
2023-04-09T10:34:21.865Z,47.24
2023-04-09T10:36:55.448Z,47.21
2023-04-09T10:39:27.056Z,48.98
2023-04-09T10:41:54.471Z,51.59
2023-04-09T10:44:27.120Z,49.87
2023-04-09T10:46:57.156Z,47.82
2023-04-09T10:49:25.592Z,47.27
2023-04-09T10:51:53.488Z,45.95
2023-04-09T10:54:35.838Z,46.99
2023-04-09T10:57:11.552Z,44.20
2023-04-09T10:59:45.503Z,43.82
2023-04-09T11:02:41.123Z,44.34
2023-04-09T11:05:22.301Z,41.79
2023-04-09T11:08:03.391Z,42.02
2023-04-09T11:10:31.044Z,42.44
2023-04-09T11:12:58.076Z,40.79
2023-04-09T11:15:25.120Z,42.46
2023-04-09T11:17:52.191Z,41.85
2023-04-09T11:20:23.355Z,41.96
2023-04-09T11:22:51.517Z,40.08
2023-04-09T11:25:22.726Z,41.17
2023-04-09T11:27:50.164Z,39.94
2023-04-09T11:30:17.206Z,42.61
2023-04-09T11:32:44.269Z,44.07
2023-04-09T11:35:18.315Z,42.67
2023-04-09T11:37:45.805Z,39.27
2023-04-09T11:40:16.965Z,40.58
2023-04-09T11:42:44.986Z,43.57
2023-04-09T11:45:12.328Z,42.47
2023-04-09T11:47:40.578Z,40.78
2023-04-09T11:50:08.411Z,42.31
2023-04-09T11:52:36.063Z,42.24
2023-04-09T11:55:04.610Z,39.72
2023-04-09T11:57:41.381Z,38.72
2023-04-09T12:00:09.505Z,37.52
2023-04-09T12:02:44.475Z,40.31
2023-04-09T12:05:13.521Z,44.01
2023-04-09T12:07:42.325Z,42.08
2023-04-09T12:10:14.013Z,41.42
2023-04-09T12:12:47.728Z,43.13
2023-04-09T12:15:21.673Z,42.79
2023-04-09T12:17:52.191Z,43.21
2023-04-09T12:20:42.524Z,44.24
2023-04-09T12:23:09.993Z,42.36
2023-04-09T12:25:43.986Z,40.79
2023-04-09T12:28:13.691Z,40.00
2023-04-09T12:30:40.811Z,39.02
2023-04-09T12:33:10.301Z,39.84
2023-04-09T12:35:38.515Z,42.37
2023-04-09T12:38:05.779Z,43.51
2023-04-09T12:40:32.773Z,46.34
2023-04-09T12:42:59.762Z,42.90
2023-04-09T12:45:28.068Z,45.73
2023-04-09T12:47:55.176Z,44.59
2023-04-09T12:50:22.245Z,42.26
2023-04-09T12:52:49.288Z,44.16
2023-04-09T12:55:16.435Z,45.44
2023-04-09T12:57:45.052Z,47.36
2023-04-09T13:00:12.665Z,45.52
2023-04-09T13:02:39.882Z,44.86
2023-04-09T13:05:07.566Z,43.54
2023-04-09T13:07:34.667Z,44.11
2023-04-09T13:10:01.703Z,44.50
2023-04-09T13:12:28.816Z,47.63
2023-04-09T13:14:56.702Z,48.55
2023-04-09T13:17:23.892Z,48.91
2023-04-09T13:19:51.830Z,49.75
2023-04-09T13:22:19.094Z,48.74
2023-04-09T13:24:46.131Z,48.81
2023-04-09T13:27:13.095Z,46.65
2023-04-09T13:29:40.192Z,46.57
2023-04-09T13:32:07.633Z,48.81
2023-04-09T13:34:35.200Z,47.07
2023-04-09T13:37:03.073Z,47.45
2023-04-09T13:39:30.017Z,44.75
2023-04-09T13:41:57.037Z,45.82
2023-04-09T13:44:25.070Z,44.96
2023-04-09T13:46:52.458Z,43.87
2023-04-09T13:49:19.404Z,42.38
2023-04-09T13:51:46.501Z,41.56
2023-04-09T13:54:13.593Z,43.76
2023-04-09T13:56:40.616Z,43.54
2023-04-09T13:59:07.621Z,40.21
2023-04-09T14:01:34.773Z,42.82
2023-04-09T14:04:02.254Z,42.39
2023-04-09T14:06:29.378Z,43.31
2023-04-09T14:08:57.145Z,42.15
2023-04-09T14:11:24.388Z,43.25
2023-04-09T14:13:51.744Z,41.07
2023-04-09T14:16:19.448Z,39.55
2023-04-09T14:18:46.537Z,41.61
2023-04-09T14:21:13.533Z,42.58
2023-04-09T14:23:40.779Z,41.34
2023-04-09T14:26:07.783Z,41.76
2023-04-09T14:28:34.767Z,41.41
2023-04-09T14:31:01.896Z,39.34
2023-04-09T14:33:28.897Z,39.83
2023-04-09T14:35:56.348Z,42.87
2023-04-09T14:38:26.538Z,42.67
2023-04-09T14:40:53.574Z,42.43
2023-04-09T14:43:20.523Z,42.05
2023-04-09T14:45:47.787Z,41.47
2023-04-09T14:48:15.075Z,41.82
2023-04-09T14:50:43.194Z,42.89
2023-04-09T14:53:10.297Z,41.23
2023-04-09T14:55:37.333Z,39.14
2023-04-09T14:58:07.140Z,37.70
2023-04-09T15:00:34.261Z,38.80
2023-04-09T15:03:01.427Z,41.89
2023-04-09T15:05:28.709Z,40.77
2023-04-09T15:07:56.117Z,39.66
2023-04-09T15:10:23.180Z,39.64
2023-04-09T15:12:50.269Z,41.37
2023-04-09T15:15:17.472Z,39.98
2023-04-09T15:17:44.557Z,39.64
2023-04-09T15:20:11.865Z,41.54
2023-04-09T15:22:38.808Z,39.29
2023-04-09T15:25:06.259Z,38.74
2023-04-09T15:27:33.269Z,37.46
2023-04-09T15:30:00.457Z,36.30
2023-04-09T15:32:29.073Z,37.83
2023-04-09T15:34:56.290Z,37.02
2023-04-09T15:37:23.320Z,35.32
2023-04-09T15:39:50.658Z,34.54
2023-04-09T15:42:22.519Z,34.87
2023-04-09T15:44:50.535Z,35.03
2023-04-09T15:47:17.819Z,35.37
2023-04-09T15:49:45.018Z,35.28
2023-04-09T15:52:12.020Z,36.29
2023-04-09T15:54:38.976Z,35.54
2023-04-09T15:57:05.996Z,35.76
2023-04-09T15:59:32.965Z,35.25
2023-04-09T16:02:00.009Z,35.59
2023-04-09T16:04:27.745Z,35.34
2023-04-09T16:06:56.414Z,34.76
2023-04-09T16:09:23.879Z,34.93
2023-04-09T16:11:51.214Z,34.85
2023-04-09T16:14:18.245Z,36.35
2023-04-09T16:16:50.070Z,35.80
2023-04-09T16:19:17.783Z,35.35
2023-04-09T16:21:45.609Z,35.70
2023-04-09T16:24:12.863Z,35.41
2023-04-09T16:26:41.108Z,35.41
2023-04-09T16:29:08.233Z,35.99
2023-04-09T16:31:36.040Z,36.07
2023-04-09T16:34:03.173Z,35.26
2023-04-09T16:36:37.233Z,37.22
2023-04-09T16:39:04.790Z,35.67
2023-04-09T16:41:31.981Z,36.39
2023-04-09T16:43:58.979Z,36.94
2023-04-09T16:46:26.083Z,37.92
2023-04-09T16:48:53.523Z,38.43
2023-04-09T16:51:21.137Z,37.28
2023-04-09T16:53:48.152Z,36.44
2023-04-09T16:56:16.105Z,37.16
2023-04-09T16:58:43.107Z,37.63
2023-04-09T17:01:10.138Z,38.61
2023-04-09T17:03:37.504Z,38.71
2023-04-09T17:06:05.016Z,37.68
2023-04-09T17:08:32.224Z,38.10
2023-04-09T17:11:02.567Z,37.54
2023-04-09T17:13:31.625Z,36.61
2023-04-09T17:15:58.767Z,36.85
2023-04-09T17:18:25.821Z,35.99
2023-04-09T17:20:53.473Z,35.96
2023-04-09T17:23:21.736Z,36.07
2023-04-09T17:25:49.303Z,35.61
2023-04-09T17:28:18.683Z,35.27
2023-04-09T17:30:46.013Z,35.39
2023-04-09T17:33:13.430Z,37.16
2023-04-09T17:35:42.195Z,36.51
2023-04-09T17:38:09.233Z,36.50
2023-04-09T17:40:36.481Z,36.07
2023-04-09T17:43:03.530Z,36.37
2023-04-09T17:45:30.529Z,36.27
2023-04-09T17:47:57.628Z,36.50
2023-04-09T17:50:24.969Z,36.50
2023-04-09T17:52:52.453Z,38.26
2023-04-09T17:55:19.501Z,38.08
2023-04-09T17:57:46.500Z,38.51
2023-04-09T18:00:14.046Z,39.01
2023-04-09T18:02:47.089Z,39.32
2023-04-09T18:05:14.434Z,40.07
2023-04-09T18:07:41.684Z,39.73
2023-04-09T18:10:08.873Z,40.18
2023-04-09T18:12:35.976Z,40.51
2023-04-09T18:15:04.363Z,40.37
2023-04-09T18:17:32.470Z,40.53
2023-04-09T18:19:59.547Z,41.07
2023-04-09T18:22:27.630Z,41.52
2023-04-09T18:24:54.972Z,41.55
2023-04-09T18:27:21.886Z,41.94
2023-04-09T18:29:49.465Z,41.60
2023-04-09T18:32:17.104Z,41.17
2023-04-09T18:34:45.808Z,41.27
2023-04-09T18:37:12.884Z,42.30
2023-04-09T18:39:39.963Z,43.41
2023-04-09T18:42:07.076Z,42.96
2023-04-09T18:44:36.350Z,42.74
2023-04-09T18:47:05.832Z,42.62
2023-04-09T18:49:33.336Z,42.97
2023-04-09T18:52:00.532Z,41.34
2023-04-09T18:54:27.827Z,40.86
2023-04-09T18:56:54.855Z,41.90
2023-04-09T18:59:21.986Z,41.95
2023-04-09T19:01:49.097Z,41.95
2023-04-09T19:04:16.467Z,41.70
2023-04-09T19:06:46.552Z,41.91
2023-04-09T19:09:13.711Z,41.79
2023-04-09T19:11:41.221Z,42.34
2023-04-09T19:14:08.437Z,42.35
2023-04-09T19:16:36.124Z,42.14
2023-04-09T19:19:03.531Z,41.63
2023-04-09T19:21:30.712Z,41.51
2023-04-09T19:24:00.036Z,40.50
2023-04-09T19:26:27.145Z,41.16
2023-04-09T19:28:54.885Z,42.38
2023-04-09T19:31:22.761Z,43.00
2023-04-09T19:33:49.801Z,43.30
2023-04-09T19:36:16.848Z,42.20
2023-04-09T19:38:43.842Z,42.83
2023-04-09T19:41:11.055Z,43.14
2023-04-09T19:43:39.337Z,43.34
2023-04-09T19:46:08.557Z,44.03
2023-04-09T19:48:37.834Z,44.23
2023-04-09T19:51:05.070Z,44.52
2023-04-09T19:53:33.061Z,44.51
2023-04-09T19:56:00.105Z,44.39
2023-04-09T19:58:27.393Z,44.90
2023-04-09T20:00:55.022Z,44.19
2023-04-09T20:03:22.475Z,43.34
2023-04-09T20:05:49.731Z,43.45
2023-04-09T20:08:16.742Z,44.32
2023-04-09T20:10:46.525Z,44.83
2023-04-09T20:13:13.885Z,44.49
2023-04-09T20:15:41.682Z,45.08
2023-04-09T20:18:08.811Z,46.10
2023-04-09T20:20:36.198Z,45.99
2023-04-09T20:23:03.424Z,45.17
2023-04-09T20:25:34.769Z,45.79
2023-04-09T20:28:04.878Z,45.56
2023-04-09T20:30:32.368Z,45.51
2023-04-09T20:32:59.369Z,45.26
2023-04-09T20:35:26.353Z,45.10
2023-04-09T20:37:54.806Z,44.88
2023-04-09T20:40:22.339Z,44.85
2023-04-09T20:42:49.396Z,45.21
2023-04-09T20:45:16.434Z,44.44
2023-04-09T20:47:43.448Z,44.69
2023-04-09T20:50:10.890Z,44.83
2023-04-09T20:52:38.425Z,45.46
2023-04-09T20:55:06.419Z,45.62
2023-04-09T20:57:33.809Z,44.73
2023-04-09T21:00:01.073Z,45.36
2023-04-09T21:02:28.206Z,45.38
2023-04-09T21:04:56.414Z,45.17
2023-04-09T21:07:23.443Z,45.38
2023-04-09T21:09:50.424Z,46.25
2023-04-09T21:12:17.439Z,46.43
2023-04-09T21:14:44.483Z,47.43
2023-04-09T21:17:11.569Z,46.83
2023-04-09T21:19:38.664Z,45.85
2023-04-09T21:22:05.617Z,46.81
2023-04-09T21:24:34.069Z,46.72
2023-04-09T21:27:01.738Z,48.36
2023-04-09T21:29:28.710Z,47.43
2023-04-09T21:31:55.911Z,47.52
2023-04-09T21:34:22.930Z,46.78
2023-04-09T21:36:50.018Z,47.21
2023-04-09T21:39:17.248Z,46.61
2023-04-09T21:41:44.226Z,46.38
2023-04-09T21:44:11.296Z,45.89
2023-04-09T21:46:40.690Z,45.59
2023-04-09T21:49:08.192Z,46.53
2023-04-09T21:51:35.481Z,46.87
2023-04-09T21:54:06.839Z,46.60
2023-04-09T21:56:34.372Z,45.85
2023-04-09T21:59:01.495Z,46.97
2023-04-09T22:01:30.540Z,46.90
2023-04-09T22:04:01.889Z,47.93
2023-04-09T22:06:29.293Z,47.33
2023-04-09T22:08:57.357Z,47.31
2023-04-09T22:11:28.504Z,47.64
2023-04-09T22:13:56.811Z,46.54
2023-04-09T22:16:24.226Z,46.22
2023-04-09T22:18:51.789Z,46.96
2023-04-09T22:21:18.986Z,45.01
2023-04-09T22:23:45.929Z,45.71
2023-04-09T22:26:13.161Z,46.91
2023-04-09T22:28:40.176Z,48.21
2023-04-09T22:31:07.409Z,47.92
2023-04-09T22:33:34.545Z,48.39
2023-04-09T22:36:01.863Z,48.50
2023-04-09T22:38:28.973Z,47.71
2023-04-09T22:40:56.133Z,46.94
2023-04-09T22:43:23.306Z,45.96
2023-04-09T22:45:54.509Z,46.90
2023-04-09T22:48:22.090Z,47.34
2023-04-09T22:50:49.642Z,46.99
2023-04-09T22:53:19.313Z,46.33
2023-04-09T22:55:47.650Z,46.96
2023-04-09T22:58:14.931Z,45.80
2023-04-09T23:00:42.340Z,46.47
2023-04-09T23:03:09.685Z,46.78
2023-04-09T23:05:36.829Z,46.89
2023-04-09T23:08:04.002Z,47.26
2023-04-09T23:10:31.443Z,49.54
2023-04-09T23:12:58.392Z,49.78
2023-04-09T23:15:25.570Z,49.14
2023-04-09T23:17:52.621Z,49.58
2023-04-09T23:20:19.878Z,55.34
2023-04-09T23:22:47.541Z,57.66
2023-04-09T23:25:17.362Z,58.32
2023-04-09T23:27:44.368Z,56.59
2023-04-09T23:30:16.717Z,57.24
2023-04-09T23:32:46.991Z,55.81
2023-04-09T23:35:14.262Z,54.43
2023-04-09T23:37:41.551Z,53.04
2023-04-09T23:40:08.942Z,52.45
2023-04-09T23:42:35.967Z,51.50
2023-04-09T23:45:04.433Z,49.60
2023-04-09T23:47:33.466Z,49.13
2023-04-09T23:50:05.014Z,49.18
2023-04-09T23:52:33.178Z,48.81
2023-04-09T23:55:00.198Z,47.90
2023-04-09T23:57:27.544Z,47.73
2023-04-09T23:59:54.688Z,47.54
